createdAt,value
2022-08-03T00:09:24.244Z,26.17
2022-08-03T00:29:24.211Z,26.17
2022-08-03T00:49:23.468Z,26.17
2022-08-03T01:09:24.154Z,26.17
2022-08-03T01:29:23.610Z,26.18
2022-08-03T01:49:24.138Z,26.17
2022-08-03T02:09:24.088Z,26.18
2022-08-03T02:29:39.019Z,26.18
2022-08-03T02:49:35.231Z,26.18
2022-08-03T03:09:24.025Z,26.18
2022-08-03T03:29:23.463Z,26.19
2022-08-03T03:49:23.988Z,26.19
2022-08-03T04:09:23.154Z,26.19
2022-08-03T04:29:23.907Z,26.19
2022-08-03T04:49:24.062Z,26.19
2022-08-03T05:09:25.982Z,26.19
2022-08-03T05:29:23.064Z,26.19
2022-08-03T05:49:23.882Z,26.19
2022-08-03T06:09:23.004Z,26.2
2022-08-03T06:29:23.223Z,26.2
2022-08-03T06:49:23.798Z,26.2
2022-08-03T07:09:23.689Z,26.2
2022-08-03T07:29:22.879Z,26.2
2022-08-03T07:49:23.736Z,26.2
2022-08-03T08:09:23.602Z,26.21
2022-08-03T08:29:23.565Z,26.21
2022-08-03T09:10:00.129Z,26.2
2022-08-03T09:29:23.456Z,26.21
2022-08-03T09:49:23.498Z,26.2
2022-08-03T10:09:23.405Z,26.2
2022-08-03T10:29:23.374Z,26.19
2022-08-03T11:09:22.798Z,26.19
2022-08-03T11:29:23.292Z,26.18
2022-08-03T11:49:23.290Z,26.16
2022-08-03T12:09:23.258Z,26.15
2022-08-03T12:29:23.241Z,26.13
2022-08-03T13:29:23.048Z,26.06
2022-08-03T13:49:23.169Z,26.04
2022-08-03T14:09:23.163Z,26.02
2022-08-03T14:29:23.138Z,25.99
2022-08-03T14:50:29.838Z,25.96
2022-08-03T15:09:23.774Z,25.93
2022-08-03T15:30:06.582Z,25.92
2022-08-03T16:09:41.903Z,25.86
2022-08-03T16:29:23.411Z,25.83
2022-08-03T16:49:53.466Z,25.81
2022-08-03T17:09:22.959Z,25.79
2022-08-03T17:29:23.034Z,25.78
2022-08-03T17:49:23.874Z,25.76
2022-08-03T18:10:02.949Z,25.75
2022-08-03T18:49:22.829Z,25.73
2022-08-03T19:09:22.643Z,25.73
2022-08-03T19:29:22.759Z,25.72
2022-08-03T20:09:22.687Z,25.72
2022-08-03T20:49:22.997Z,25.73
2022-08-03T21:09:22.599Z,25.73
2022-08-03T21:29:22.581Z,25.73
2022-08-03T21:49:52.427Z,25.73
2022-08-03T22:09:22.515Z,25.74
2022-08-03T22:29:22.481Z,25.74
2022-08-03T22:49:22.453Z,25.74
2022-08-03T23:09:22.426Z,25.74
2022-08-03T23:29:22.405Z,25.74
2022-08-03T23:49:22.109Z,25.75
